sensor_id;sensor_type;location;lat;lon;timestamp;temperature;humidity
54192;DHT22;40101;53.002;6.488;2022-07-10T00:02:04;14.30;99.90
54192;DHT22;40101;53.002;6.488;2022-07-10T00:04:30;14.30;99.90
54192;DHT22;40101;53.002;6.488;2022-07-10T00:06:55;14.30;99.90
54192;DHT22;40101;53.002;6.488;2022-07-10T00:09:24;14.30;99.90
54192;DHT22;40101;53.002;6.488;2022-07-10T00:11:49;14.30;99.90
54192;DHT22;40101;53.002;6.488;2022-07-10T00:14:15;14.20;99.90
54192;DHT22;40101;53.002;6.488;2022-07-10T00:16:41;14.20;99.90
54192;DHT22;40101;53.002;6.488;2022-07-10T00:19:06;14.10;99.90
54192;DHT22;40101;53.002;6.488;2022-07-10T00:21:32;14.10;99.90
54192;DHT22;40101;53.002;6.488;2022-07-10T00:23:57;14.00;99.90
54192;DHT22;40101;53.002;6.488;2022-07-10T00:26:23;14.00;99.90
54192;DHT22;40101;53.002;6.488;2022-07-10T00:28:49;13.90;99.90
54192;DHT22;40101;53.002;6.488;2022-07-10T00:31:14;13.90;99.90
54192;DHT22;40101;53.002;6.488;2022-07-10T00:33:40;13.80;99.90
54192;DHT22;40101;53.002;6.488;2022-07-10T00:36:06;13.80;99.90
54192;DHT22;40101;53.002;6.488;2022-07-10T00:38:32;13.90;99.90
54192;DHT22;40101;53.002;6.488;2022-07-10T00:40:58;13.90;99.90
54192;DHT22;40101;53.002;6.488;2022-07-10T00:43:24;13.90;99.90
54192;DHT22;40101;53.002;6.488;2022-07-10T00:45:50;14.00;99.90
54192;DHT22;40101;53.002;6.488;2022-07-10T00:48:15;14.00;99.90
54192;DHT22;40101;53.002;6.488;2022-07-10T00:50:45;14.10;99.90
54192;DHT22;40101;53.002;6.488;2022-07-10T00:53:13;14.10;99.90
54192;DHT22;40101;53.002;6.488;2022-07-10T00:55:38;14.10;99.90
54192;DHT22;40101;53.002;6.488;2022-07-10T00:58:07;14.00;99.90
54192;DHT22;40101;53.002;6.488;2022-07-10T01:00:34;13.90;99.90
54192;DHT22;40101;53.002;6.488;2022-07-10T01:03:00;13.90;99.90
54192;DHT22;40101;53.002;6.488;2022-07-10T01:05:26;13.90;99.90
54192;DHT22;40101;53.002;6.488;2022-07-10T01:07:51;13.90;99.90
54192;DHT22;40101;53.002;6.488;2022-07-10T01:10:17;13.90;99.90
54192;DHT22;40101;53.002;6.488;2022-07-10T01:12:44;14.00;99.90
54192;DHT22;40101;53.002;6.488;2022-07-10T01:15:10;14.00;99.90
54192;DHT22;40101;53.002;6.488;2022-07-10T01:17:36;14.00;99.90
54192;DHT22;40101;53.002;6.488;2022-07-10T01:20:09;14.00;99.90
54192;DHT22;40101;53.002;6.488;2022-07-10T01:22:38;14.00;99.90
54192;DHT22;40101;53.002;6.488;2022-07-10T01:25:04;13.90;99.90
54192;DHT22;40101;53.002;6.488;2022-07-10T01:27:31;13.90;99.90
54192;DHT22;40101;53.002;6.488;2022-07-10T01:29:57;13.90;99.90
54192;DHT22;40101;53.002;6.488;2022-07-10T01:32:24;13.90;99.90
54192;DHT22;40101;53.002;6.488;2022-07-10T01:34:49;13.80;99.90
54192;DHT22;40101;53.002;6.488;2022-07-10T01:37:15;13.70;99.90
54192;DHT22;40101;53.002;6.488;2022-07-10T01:39:41;13.60;99.90
54192;DHT22;40101;53.002;6.488;2022-07-10T01:42:06;13.50;99.90
54192;DHT22;40101;53.002;6.488;2022-07-10T01:44:32;13.50;99.90
54192;DHT22;40101;53.002;6.488;2022-07-10T01:46:57;13.40;99.90
54192;DHT22;40101;53.002;6.488;2022-07-10T01:49:23;13.40;99.90
54192;DHT22;40101;53.002;6.488;2022-07-10T01:51:49;13.40;99.90
54192;DHT22;40101;53.002;6.488;2022-07-10T01:54:14;13.30;99.90
54192;DHT22;40101;53.002;6.488;2022-07-10T01:56:40;13.30;99.90
54192;DHT22;40101;53.002;6.488;2022-07-10T01:59:06;13.20;99.90
54192;DHT22;40101;53.002;6.488;2022-07-10T02:01:31;13.20;99.90
54192;DHT22;40101;53.002;6.488;2022-07-10T02:03:58;13.10;99.90
54192;DHT22;40101;53.002;6.488;2022-07-10T02:06:41;13.10;99.90
54192;DHT22;40101;53.002;6.488;2022-07-10T02:09:08;13.10;99.90
54192;DHT22;40101;53.002;6.488;2022-07-10T02:11:33;13.10;99.90
54192;DHT22;40101;53.002;6.488;2022-07-10T02:13:59;13.00;99.90
54192;DHT22;40101;53.002;6.488;2022-07-10T02:16:24;13.00;99.90
54192;DHT22;40101;53.002;6.488;2022-07-10T02:18:50;13.00;99.90
54192;DHT22;40101;53.002;6.488;2022-07-10T02:21:15;12.90;99.90
54192;DHT22;40101;53.002;6.488;2022-07-10T02:23:41;12.90;99.90
54192;DHT22;40101;53.002;6.488;2022-07-10T02:26:07;12.90;99.90
54192;DHT22;40101;53.002;6.488;2022-07-10T02:28:33;12.90;99.90
54192;DHT22;40101;53.002;6.488;2022-07-10T02:30:58;12.80;99.90
54192;DHT22;40101;53.002;6.488;2022-07-10T02:33:25;12.80;99.90
54192;DHT22;40101;53.002;6.488;2022-07-10T02:35:51;12.80;99.90
54192;DHT22;40101;53.002;6.488;2022-07-10T02:38:17;12.80;99.90
54192;DHT22;40101;53.002;6.488;2022-07-10T02:40:42;12.70;99.90
54192;DHT22;40101;53.002;6.488;2022-07-10T02:43:08;12.70;99.90
54192;DHT22;40101;53.002;6.488;2022-07-10T02:45:33;12.70;99.90
54192;DHT22;40101;53.002;6.488;2022-07-10T02:47:59;12.70;99.90
54192;DHT22;40101;53.002;6.488;2022-07-10T02:50:25;12.60;99.90
54192;DHT22;40101;53.002;6.488;2022-07-10T02:52:50;12.60;99.90
54192;DHT22;40101;53.002;6.488;2022-07-10T02:55:16;12.60;99.90
54192;DHT22;40101;53.002;6.488;2022-07-10T02:57:42;12.60;99.90
54192;DHT22;40101;53.002;6.488;2022-07-10T03:00:08;12.60;99.90
54192;DHT22;40101;53.002;6.488;2022-07-10T03:02:34;12.60;99.90
54192;DHT22;40101;53.002;6.488;2022-07-10T03:04:59;12.60;99.90
54192;DHT22;40101;53.002;6.488;2022-07-10T03:07:25;12.60;99.90
54192;DHT22;40101;53.002;6.488;2022-07-10T03:09:50;12.60;99.90
54192;DHT22;40101;53.002;6.488;2022-07-10T03:12:16;12.60;99.90
54192;DHT22;40101;53.002;6.488;2022-07-10T03:14:42;12.50;99.90
54192;DHT22;40101;53.002;6.488;2022-07-10T03:17:07;12.60;99.90
54192;DHT22;40101;53.002;6.488;2022-07-10T03:19:33;12.60;99.90
54192;DHT22;40101;53.002;6.488;2022-07-10T03:21:59;12.70;99.90
54192;DHT22;40101;53.002;6.488;2022-07-10T03:24:25;12.70;99.90
54192;DHT22;40101;53.002;6.488;2022-07-10T03:26:50;12.80;99.90
54192;DHT22;40101;53.002;6.488;2022-07-10T03:29:16;12.90;99.90
54192;DHT22;40101;53.002;6.488;2022-07-10T03:31:42;12.90;99.90
54192;DHT22;40101;53.002;6.488;2022-07-10T03:34:08;13.00;99.90
54192;DHT22;40101;53.002;6.488;2022-07-10T03:36:33;13.00;99.90
54192;DHT22;40101;53.002;6.488;2022-07-10T03:38:59;13.10;99.90
54192;DHT22;40101;53.002;6.488;2022-07-10T03:41:24;13.10;99.90
54192;DHT22;40101;53.002;6.488;2022-07-10T03:43:50;13.20;99.90
54192;DHT22;40101;53.002;6.488;2022-07-10T03:46:16;13.20;99.90
54192;DHT22;40101;53.002;6.488;2022-07-10T03:48:41;13.30;99.90
54192;DHT22;40101;53.002;6.488;2022-07-10T03:51:07;13.30;99.90
54192;DHT22;40101;53.002;6.488;2022-07-10T03:53:33;13.30;99.90
54192;DHT22;40101;53.002;6.488;2022-07-10T03:56:01;13.40;99.90
54192;DHT22;40101;53.002;6.488;2022-07-10T03:58:27;13.40;99.90
54192;DHT22;40101;53.002;6.488;2022-07-10T04:00:52;13.40;99.90
54192;DHT22;40101;53.002;6.488;2022-07-10T04:03:18;13.50;99.90
54192;DHT22;40101;53.002;6.488;2022-07-10T04:05:44;13.50;99.90
54192;DHT22;40101;53.002;6.488;2022-07-10T04:08:09;13.60;99.90
54192;DHT22;40101;53.002;6.488;2022-07-10T04:10:35;13.50;99.90
54192;DHT22;40101;53.002;6.488;2022-07-10T04:13:01;13.60;99.90
54192;DHT22;40101;53.002;6.488;2022-07-10T04:15:27;13.60;99.90
54192;DHT22;40101;53.002;6.488;2022-07-10T04:17:53;13.60;99.90
54192;DHT22;40101;53.002;6.488;2022-07-10T04:20:19;13.50;99.90
54192;DHT22;40101;53.002;6.488;2022-07-10T04:22:46;13.60;99.90
54192;DHT22;40101;53.002;6.488;2022-07-10T04:25:12;13.60;99.90
54192;DHT22;40101;53.002;6.488;2022-07-10T04:27:38;13.60;99.90
54192;DHT22;40101;53.002;6.488;2022-07-10T04:30:04;13.70;99.90
54192;DHT22;40101;53.002;6.488;2022-07-10T04:32:31;13.70;99.90
54192;DHT22;40101;53.002;6.488;2022-07-10T04:34:57;13.80;99.90
54192;DHT22;40101;53.002;6.488;2022-07-10T04:37:24;13.80;99.90
54192;DHT22;40101;53.002;6.488;2022-07-10T04:39:50;13.80;99.90
54192;DHT22;40101;53.002;6.488;2022-07-10T04:42:15;13.80;99.90
54192;DHT22;40101;53.002;6.488;2022-07-10T04:44:41;13.90;99.90
54192;DHT22;40101;53.002;6.488;2022-07-10T04:47:07;13.90;99.90
54192;DHT22;40101;53.002;6.488;2022-07-10T04:49:33;14.00;99.90
54192;DHT22;40101;53.002;6.488;2022-07-10T04:51:59;14.00;99.90
54192;DHT22;40101;53.002;6.488;2022-07-10T04:54:25;14.10;99.90
54192;DHT22;40101;53.002;6.488;2022-07-10T04:56:51;14.10;99.90
54192;DHT22;40101;53.002;6.488;2022-07-10T04:59:17;14.10;99.90
54192;DHT22;40101;53.002;6.488;2022-07-10T05:01:42;14.20;99.90
54192;DHT22;40101;53.002;6.488;2022-07-10T05:04:08;14.20;99.90
54192;DHT22;40101;53.002;6.488;2022-07-10T05:06:34;14.20;99.90
54192;DHT22;40101;53.002;6.488;2022-07-10T05:09:00;14.30;99.90
54192;DHT22;40101;53.002;6.488;2022-07-10T05:11:26;14.30;99.90
54192;DHT22;40101;53.002;6.488;2022-07-10T05:13:52;14.30;99.90
54192;DHT22;40101;53.002;6.488;2022-07-10T05:16:18;14.30;99.90
54192;DHT22;40101;53.002;6.488;2022-07-10T05:18:44;14.30;99.90
54192;DHT22;40101;53.002;6.488;2022-07-10T05:21:10;14.30;99.90
54192;DHT22;40101;53.002;6.488;2022-07-10T05:23:38;14.30;99.90
54192;DHT22;40101;53.002;6.488;2022-07-10T05:26:04;14.30;99.90
54192;DHT22;40101;53.002;6.488;2022-07-10T05:28:30;14.40;99.90
54192;DHT22;40101;53.002;6.488;2022-07-10T05:30:55;14.40;99.90
54192;DHT22;40101;53.002;6.488;2022-07-10T05:33:21;14.40;99.90
54192;DHT22;40101;53.002;6.488;2022-07-10T05:35:47;14.40;99.90
54192;DHT22;40101;53.002;6.488;2022-07-10T05:38:13;14.40;99.90
54192;DHT22;40101;53.002;6.488;2022-07-10T05:40:38;14.40;99.90
54192;DHT22;40101;53.002;6.488;2022-07-10T05:43:04;14.40;99.90
54192;DHT22;40101;53.002;6.488;2022-07-10T05:45:30;14.50;99.90
54192;DHT22;40101;53.002;6.488;2022-07-10T05:47:56;14.60;99.90
54192;DHT22;40101;53.002;6.488;2022-07-10T05:50:22;14.60;99.90
54192;DHT22;40101;53.002;6.488;2022-07-10T05:52:47;14.70;99.90
54192;DHT22;40101;53.002;6.488;2022-07-10T05:55:13;14.70;99.90
54192;DHT22;40101;53.002;6.488;2022-07-10T05:57:40;14.80;99.90
54192;DHT22;40101;53.002;6.488;2022-07-10T06:00:06;14.80;99.90
54192;DHT22;40101;53.002;6.488;2022-07-10T06:02:32;14.80;99.90
54192;DHT22;40101;53.002;6.488;2022-07-10T06:04:58;15.00;99.90
54192;DHT22;40101;53.002;6.488;2022-07-10T06:07:25;15.00;99.90
54192;DHT22;40101;53.002;6.488;2022-07-10T06:09:50;15.10;99.90
54192;DHT22;40101;53.002;6.488;2022-07-10T06:12:16;15.10;99.90
54192;DHT22;40101;53.002;6.488;2022-07-10T06:14:42;15.20;99.90
54192;DHT22;40101;53.002;6.488;2022-07-10T06:17:08;15.20;99.90
54192;DHT22;40101;53.002;6.488;2022-07-10T06:19:33;15.10;99.90
54192;DHT22;40101;53.002;6.488;2022-07-10T06:21:59;15.20;99.90
54192;DHT22;40101;53.002;6.488;2022-07-10T06:24:44;15.30;99.90
54192;DHT22;40101;53.002;6.488;2022-07-10T06:27:10;15.20;99.90
54192;DHT22;40101;53.002;6.488;2022-07-10T06:29:36;15.20;99.90
54192;DHT22;40101;53.002;6.488;2022-07-10T06:32:03;15.10;99.90
54192;DHT22;40101;53.002;6.488;2022-07-10T06:34:28;15.20;99.90
54192;DHT22;40101;53.002;6.488;2022-07-10T06:36:54;15.10;99.90
54192;DHT22;40101;53.002;6.488;2022-07-10T06:39:20;15.20;99.90
54192;DHT22;40101;53.002;6.488;2022-07-10T06:41:46;15.20;99.90
54192;DHT22;40101;53.002;6.488;2022-07-10T06:44:11;15.20;99.90
54192;DHT22;40101;53.002;6.488;2022-07-10T06:46:37;15.20;99.90
54192;DHT22;40101;53.002;6.488;2022-07-10T06:49:03;15.30;99.90
54192;DHT22;40101;53.002;6.488;2022-07-10T06:51:29;15.40;99.90
54192;DHT22;40101;53.002;6.488;2022-07-10T06:53:55;15.50;99.90
54192;DHT22;40101;53.002;6.488;2022-07-10T06:56:22;15.60;99.90
54192;DHT22;40101;53.002;6.488;2022-07-10T06:58:47;15.70;99.90
54192;DHT22;40101;53.002;6.488;2022-07-10T07:01:13;15.80;99.90
54192;DHT22;40101;53.002;6.488;2022-07-10T07:03:39;15.90;99.90
54192;DHT22;40101;53.002;6.488;2022-07-10T07:06:04;16.00;99.90
54192;DHT22;40101;53.002;6.488;2022-07-10T07:08:30;16.00;99.90
54192;DHT22;40101;53.002;6.488;2022-07-10T07:10:56;16.00;99.90
54192;DHT22;40101;53.002;6.488;2022-07-10T07:13:21;16.00;99.90
54192;DHT22;40101;53.002;6.488;2022-07-10T07:15:47;16.00;99.90
54192;DHT22;40101;53.002;6.488;2022-07-10T07:18:23;16.00;99.90
54192;DHT22;40101;53.002;6.488;2022-07-10T07:20:57;16.00;99.90
54192;DHT22;40101;53.002;6.488;2022-07-10T07:23:42;15.90;99.90
54192;DHT22;40101;53.002;6.488;2022-07-10T07:26:07;15.90;99.90
54192;DHT22;40101;53.002;6.488;2022-07-10T07:28:33;15.80;99.90
54192;DHT22;40101;53.002;6.488;2022-07-10T07:30:59;15.80;99.90
54192;DHT22;40101;53.002;6.488;2022-07-10T07:33:25;15.80;99.90
54192;DHT22;40101;53.002;6.488;2022-07-10T07:35:51;16.00;99.90
54192;DHT22;40101;53.002;6.488;2022-07-10T07:38:16;16.00;99.90
54192;DHT22;40101;53.002;6.488;2022-07-10T07:40:43;16.00;99.90
54192;DHT22;40101;53.002;6.488;2022-07-10T07:43:08;16.10;99.90
54192;DHT22;40101;53.002;6.488;2022-07-10T07:45:34;16.20;99.90
54192;DHT22;40101;53.002;6.488;2022-07-10T07:48:00;16.30;99.90
54192;DHT22;40101;53.002;6.488;2022-07-10T07:50:33;16.30;99.90
54192;DHT22;40101;53.002;6.488;2022-07-10T07:53:00;16.40;99.90
54192;DHT22;40101;53.002;6.488;2022-07-10T07:55:26;16.40;99.90
54192;DHT22;40101;53.002;6.488;2022-07-10T07:57:55;16.40;99.90
54192;DHT22;40101;53.002;6.488;2022-07-10T08:00:25;16.50;99.90
54192;DHT22;40101;53.002;6.488;2022-07-10T08:02:53;16.60;99.90
54192;DHT22;40101;53.002;6.488;2022-07-10T08:05:20;16.50;99.90
54192;DHT22;40101;53.002;6.488;2022-07-10T08:07:48;16.50;99.90
54192;DHT22;40101;53.002;6.488;2022-07-10T08:10:16;16.30;99.90
54192;DHT22;40101;53.002;6.488;2022-07-10T08:12:43;16.40;99.90
54192;DHT22;40101;53.002;6.488;2022-07-10T08:15:12;16.30;99.90
54192;DHT22;40101;53.002;6.488;2022-07-10T08:17:39;16.30;99.90
54192;DHT22;40101;53.002;6.488;2022-07-10T08:20:06;16.20;99.90
54192;DHT22;40101;53.002;6.488;2022-07-10T08:22:34;16.20;99.90
54192;DHT22;40101;53.002;6.488;2022-07-10T08:25:00;16.20;99.90
54192;DHT22;40101;53.002;6.488;2022-07-10T08:27:25;16.20;99.90
54192;DHT22;40101;53.002;6.488;2022-07-10T08:29:51;16.20;99.90
54192;DHT22;40101;53.002;6.488;2022-07-10T08:32:17;16.20;99.90
54192;DHT22;40101;53.002;6.488;2022-07-10T08:34:43;16.20;99.90
54192;DHT22;40101;53.002;6.488;2022-07-10T08:37:09;16.30;99.90
54192;DHT22;40101;53.002;6.488;2022-07-10T08:39:34;16.30;99.90
54192;DHT22;40101;53.002;6.488;2022-07-10T08:42:00;16.30;99.90
54192;DHT22;40101;53.002;6.488;2022-07-10T08:44:27;16.30;99.90
54192;DHT22;40101;53.002;6.488;2022-07-10T08:46:54;16.30;99.90
54192;DHT22;40101;53.002;6.488;2022-07-10T08:49:29;16.40;99.90
54192;DHT22;40101;53.002;6.488;2022-07-10T08:52:09;16.40;99.90
54192;DHT22;40101;53.002;6.488;2022-07-10T08:54:38;16.40;99.90
54192;DHT22;40101;53.002;6.488;2022-07-10T08:57:05;16.40;99.90
54192;DHT22;40101;53.002;6.488;2022-07-10T08:59:31;16.50;99.90
54192;DHT22;40101;53.002;6.488;2022-07-10T09:01:57;16.50;99.90
54192;DHT22;40101;53.002;6.488;2022-07-10T09:04:25;16.50;99.90
54192;DHT22;40101;53.002;6.488;2022-07-10T09:06:53;16.50;99.90
54192;DHT22;40101;53.002;6.488;2022-07-10T09:09:19;16.40;99.90
54192;DHT22;40101;53.002;6.488;2022-07-10T09:11:45;16.50;99.90
54192;DHT22;40101;53.002;6.488;2022-07-10T09:14:14;16.60;99.90
54192;DHT22;40101;53.002;6.488;2022-07-10T09:16:45;16.70;99.90
54192;DHT22;40101;53.002;6.488;2022-07-10T09:19:19;16.70;99.90
54192;DHT22;40101;53.002;6.488;2022-07-10T09:21:49;16.80;99.90
54192;DHT22;40101;53.002;6.488;2022-07-10T09:24:15;16.80;99.90
54192;DHT22;40101;53.002;6.488;2022-07-10T09:27:00;16.80;99.90
54192;DHT22;40101;53.002;6.488;2022-07-10T09:29:29;16.70;99.90
54192;DHT22;40101;53.002;6.488;2022-07-10T09:32:00;16.60;99.90
54192;DHT22;40101;53.002;6.488;2022-07-10T09:34:40;16.50;99.90
54192;DHT22;40101;53.002;6.488;2022-07-10T09:44:52;16.60;99.90
54192;DHT22;40101;53.002;6.488;2022-07-10T09:47:22;16.60;99.90
54192;DHT22;40101;53.002;6.488;2022-07-10T09:49:48;16.60;99.90
54192;DHT22;40101;53.002;6.488;2022-07-10T09:52:14;16.60;99.90
54192;DHT22;40101;53.002;6.488;2022-07-10T09:54:39;16.50;99.90
54192;DHT22;40101;53.002;6.488;2022-07-10T09:57:06;16.50;99.90
54192;DHT22;40101;53.002;6.488;2022-07-10T09:59:35;16.60;99.90
54192;DHT22;40101;53.002;6.488;2022-07-10T10:02:02;16.80;99.90
54192;DHT22;40101;53.002;6.488;2022-07-10T10:04:29;16.90;99.90
54192;DHT22;40101;53.002;6.488;2022-07-10T10:06:56;17.00;99.90
54192;DHT22;40101;53.002;6.488;2022-07-10T10:09:28;17.00;99.90
54192;DHT22;40101;53.002;6.488;2022-07-10T10:11:59;16.80;99.90
54192;DHT22;40101;53.002;6.488;2022-07-10T10:14:28;16.70;99.90
54192;DHT22;40101;53.002;6.488;2022-07-10T10:16:55;16.70;99.90
54192;DHT22;40101;53.002;6.488;2022-07-10T10:19:23;16.70;99.90
54192;DHT22;40101;53.002;6.488;2022-07-10T10:22:08;16.70;99.90
54192;DHT22;40101;53.002;6.488;2022-07-10T10:24:34;16.80;99.90
54192;DHT22;40101;53.002;6.488;2022-07-10T10:27:01;16.90;99.90
54192;DHT22;40101;53.002;6.488;2022-07-10T10:29:30;16.90;99.90
54192;DHT22;40101;53.002;6.488;2022-07-10T10:31:56;16.90;99.90
54192;DHT22;40101;53.002;6.488;2022-07-10T10:34:41;16.90;99.90
54192;DHT22;40101;53.002;6.488;2022-07-10T10:37:34;17.00;99.90
54192;DHT22;40101;53.002;6.488;2022-07-10T10:40:04;17.00;99.90
54192;DHT22;40101;53.002;6.488;2022-07-10T10:42:41;17.30;99.90
54192;DHT22;40101;53.002;6.488;2022-07-10T10:47:58;18.20;99.90
54192;DHT22;40101;53.002;6.488;2022-07-10T10:50:50;18.50;99.90
54192;DHT22;40101;53.002;6.488;2022-07-10T10:53:27;18.90;99.90
54192;DHT22;40101;53.002;6.488;2022-07-10T10:58:36;19.20;99.90
54192;DHT22;40101;53.002;6.488;2022-07-10T11:01:05;19.30;99.90
54192;DHT22;40101;53.002;6.488;2022-07-10T11:03:32;19.30;99.90
54192;DHT22;40101;53.002;6.488;2022-07-10T11:05:57;19.30;99.90
54192;DHT22;40101;53.002;6.488;2022-07-10T11:08:41;19.20;99.90
54192;DHT22;40101;53.002;6.488;2022-07-10T11:13:59;18.90;99.90
54192;DHT22;40101;53.002;6.488;2022-07-10T11:16:25;19.00;99.90
54192;DHT22;40101;53.002;6.488;2022-07-10T11:18:52;19.30;99.90
54192;DHT22;40101;53.002;6.488;2022-07-10T11:21:23;19.50;99.90
54192;DHT22;40101;53.002;6.488;2022-07-10T11:26:52;19.50;99.90
54192;DHT22;40101;53.002;6.488;2022-07-10T11:29:21;19.30;99.90
54192;DHT22;40101;53.002;6.488;2022-07-10T11:31:54;19.00;99.90
54192;DHT22;40101;53.002;6.488;2022-07-10T11:34:21;19.00;99.90
54192;DHT22;40101;53.002;6.488;2022-07-10T11:36:47;19.00;99.90
54192;DHT22;40101;53.002;6.488;2022-07-10T11:39:13;19.00;99.90
54192;DHT22;40101;53.002;6.488;2022-07-10T11:41:43;18.80;99.90
54192;DHT22;40101;53.002;6.488;2022-07-10T11:44:17;18.70;99.90
54192;DHT22;40101;53.002;6.488;2022-07-10T11:46:44;18.60;99.90
54192;DHT22;40101;53.002;6.488;2022-07-10T11:49:11;18.50;99.90
54192;DHT22;40101;53.002;6.488;2022-07-10T11:51:39;18.50;99.90
54192;DHT22;40101;53.002;6.488;2022-07-10T11:54:13;18.60;99.90
54192;DHT22;40101;53.002;6.488;2022-07-10T11:56:49;18.60;99.90
54192;DHT22;40101;53.002;6.488;2022-07-10T11:59:17;18.70;99.90
54192;DHT22;40101;53.002;6.488;2022-07-10T12:01:49;18.70;99.90
54192;DHT22;40101;53.002;6.488;2022-07-10T12:04:20;18.60;99.90
54192;DHT22;40101;53.002;6.488;2022-07-10T12:06:53;18.40;99.90
54192;DHT22;40101;53.002;6.488;2022-07-10T12:09:20;18.30;99.90
54192;DHT22;40101;53.002;6.488;2022-07-10T12:12:04;18.20;99.90
54192;DHT22;40101;53.002;6.488;2022-07-10T12:14:30;18.10;99.90
54192;DHT22;40101;53.002;6.488;2022-07-10T12:16:57;18.10;99.90
54192;DHT22;40101;53.002;6.488;2022-07-10T12:19:26;18.10;99.90
54192;DHT22;40101;53.002;6.488;2022-07-10T12:21:53;18.10;99.90
54192;DHT22;40101;53.002;6.488;2022-07-10T12:24:20;18.10;99.90
54192;DHT22;40101;53.002;6.488;2022-07-10T12:26:47;18.10;99.90
54192;DHT22;40101;53.002;6.488;2022-07-10T12:29:20;18.10;99.90
54192;DHT22;40101;53.002;6.488;2022-07-10T12:31:47;18.20;99.90
54192;DHT22;40101;53.002;6.488;2022-07-10T12:34:15;18.10;99.90
54192;DHT22;40101;53.002;6.488;2022-07-10T12:36:45;18.20;99.90
54192;DHT22;40101;53.002;6.488;2022-07-10T12:39:13;18.20;99.90
54192;DHT22;40101;53.002;6.488;2022-07-10T12:42:02;18.20;99.90
54192;DHT22;40101;53.002;6.488;2022-07-10T12:44:47;18.50;99.90
54192;DHT22;40101;53.002;6.488;2022-07-10T12:47:14;18.80;99.90
54192;DHT22;40101;53.002;6.488;2022-07-10T12:50:04;18.90;99.90
54192;DHT22;40101;53.002;6.488;2022-07-10T12:52:32;18.90;99.90
54192;DHT22;40101;53.002;6.488;2022-07-10T12:58:07;18.70;99.90
54192;DHT22;40101;53.002;6.488;2022-07-10T13:00:36;18.50;99.90
54192;DHT22;40101;53.002;6.488;2022-07-10T13:03:11;18.40;99.90
54192;DHT22;40101;53.002;6.488;2022-07-10T13:05:43;18.30;99.90
54192;DHT22;40101;53.002;6.488;2022-07-10T13:08:14;18.20;99.90
54192;DHT22;40101;53.002;6.488;2022-07-10T13:10:50;18.10;99.90
54192;DHT22;40101;53.002;6.488;2022-07-10T13:13:16;18.10;99.90
54192;DHT22;40101;53.002;6.488;2022-07-10T13:15:44;18.20;99.90
54192;DHT22;40101;53.002;6.488;2022-07-10T13:18:16;18.20;99.90
54192;DHT22;40101;53.002;6.488;2022-07-10T13:20:44;18.30;99.90
54192;DHT22;40101;53.002;6.488;2022-07-10T13:23:10;18.30;99.90
54192;DHT22;40101;53.002;6.488;2022-07-10T13:25:37;18.30;99.90
54192;DHT22;40101;53.002;6.488;2022-07-10T13:28:07;18.30;99.90
54192;DHT22;40101;53.002;6.488;2022-07-10T13:30:34;18.40;99.90
54192;DHT22;40101;53.002;6.488;2022-07-10T13:33:00;18.50;99.90
54192;DHT22;40101;53.002;6.488;2022-07-10T13:35:32;18.60;99.90
54192;DHT22;40101;53.002;6.488;2022-07-10T13:38:02;18.60;99.90
54192;DHT22;40101;53.002;6.488;2022-07-10T13:40:33;18.50;99.90
54192;DHT22;40101;53.002;6.488;2022-07-10T13:42:59;18.60;99.90
54192;DHT22;40101;53.002;6.488;2022-07-10T13:45:35;18.70;99.90
54192;DHT22;40101;53.002;6.488;2022-07-10T13:48:09;18.80;99.90
54192;DHT22;40101;53.002;6.488;2022-07-10T13:50:37;18.80;99.90
54192;DHT22;40101;53.002;6.488;2022-07-10T13:53:03;18.90;99.90
54192;DHT22;40101;53.002;6.488;2022-07-10T13:55:29;18.90;99.90
54192;DHT22;40101;53.002;6.488;2022-07-10T13:57:55;18.90;99.90
54192;DHT22;40101;53.002;6.488;2022-07-10T14:00:21;18.80;99.90
54192;DHT22;40101;53.002;6.488;2022-07-10T14:02:47;18.80;99.90
54192;DHT22;40101;53.002;6.488;2022-07-10T14:05:12;18.70;99.90
54192;DHT22;40101;53.002;6.488;2022-07-10T14:07:38;18.70;99.90
54192;DHT22;40101;53.002;6.488;2022-07-10T14:10:04;18.80;99.90
54192;DHT22;40101;53.002;6.488;2022-07-10T14:12:31;19.10;99.90
54192;DHT22;40101;53.002;6.488;2022-07-10T14:14:57;19.20;99.90
54192;DHT22;40101;53.002;6.488;2022-07-10T14:17:23;19.40;99.90
54192;DHT22;40101;53.002;6.488;2022-07-10T14:19:49;19.50;99.90
54192;DHT22;40101;53.002;6.488;2022-07-10T14:22:16;19.50;99.90
54192;DHT22;40101;53.002;6.488;2022-07-10T14:24:41;19.60;99.90
54192;DHT22;40101;53.002;6.488;2022-07-10T14:27:08;19.60;99.90
54192;DHT22;40101;53.002;6.488;2022-07-10T14:29:33;19.60;99.90
54192;DHT22;40101;53.002;6.488;2022-07-10T14:31:59;19.60;99.90
54192;DHT22;40101;53.002;6.488;2022-07-10T14:34:25;19.50;99.90
54192;DHT22;40101;53.002;6.488;2022-07-10T14:36:53;19.40;99.90
54192;DHT22;40101;53.002;6.488;2022-07-10T14:39:19;19.40;99.90
54192;DHT22;40101;53.002;6.488;2022-07-10T14:41:44;19.40;99.90
54192;DHT22;40101;53.002;6.488;2022-07-10T14:44:10;19.30;99.90
54192;DHT22;40101;53.002;6.488;2022-07-10T14:46:36;19.30;99.90
54192;DHT22;40101;53.002;6.488;2022-07-10T14:49:01;19.20;99.90
54192;DHT22;40101;53.002;6.488;2022-07-10T14:51:27;19.30;99.90
54192;DHT22;40101;53.002;6.488;2022-07-10T14:53:54;19.30;99.90
54192;DHT22;40101;53.002;6.488;2022-07-10T14:56:21;19.40;99.90
54192;DHT22;40101;53.002;6.488;2022-07-10T14:58:48;19.50;99.90
54192;DHT22;40101;53.002;6.488;2022-07-10T15:01:14;19.50;99.90
54192;DHT22;40101;53.002;6.488;2022-07-10T15:03:43;19.60;99.90
54192;DHT22;40101;53.002;6.488;2022-07-10T15:06:09;19.50;99.90
54192;DHT22;40101;53.002;6.488;2022-07-10T15:08:36;19.50;99.90
54192;DHT22;40101;53.002;6.488;2022-07-10T15:11:02;19.40;99.90
54192;DHT22;40101;53.002;6.488;2022-07-10T15:13:29;19.40;99.90
54192;DHT22;40101;53.002;6.488;2022-07-10T15:15:55;19.30;99.90
54192;DHT22;40101;53.002;6.488;2022-07-10T15:18:21;19.30;99.90
54192;DHT22;40101;53.002;6.488;2022-07-10T15:20:47;19.30;99.90
54192;DHT22;40101;53.002;6.488;2022-07-10T15:23:13;19.20;99.90
54192;DHT22;40101;53.002;6.488;2022-07-10T15:25:40;19.20;99.90
54192;DHT22;40101;53.002;6.488;2022-07-10T15:28:06;19.20;99.90
54192;DHT22;40101;53.002;6.488;2022-07-10T15:30:33;19.20;99.90
54192;DHT22;40101;53.002;6.488;2022-07-10T15:32:59;19.20;99.90
54192;DHT22;40101;53.002;6.488;2022-07-10T15:35:25;19.20;99.90
54192;DHT22;40101;53.002;6.488;2022-07-10T15:37:51;19.20;99.90
54192;DHT22;40101;53.002;6.488;2022-07-10T15:40:16;19.30;99.90
54192;DHT22;40101;53.002;6.488;2022-07-10T15:42:42;19.40;99.90
54192;DHT22;40101;53.002;6.488;2022-07-10T15:45:08;19.50;99.90
54192;DHT22;40101;53.002;6.488;2022-07-10T15:47:34;19.60;99.90
54192;DHT22;40101;53.002;6.488;2022-07-10T15:50:00;19.60;99.90
54192;DHT22;40101;53.002;6.488;2022-07-10T15:52:26;19.60;99.90
54192;DHT22;40101;53.002;6.488;2022-07-10T15:54:51;19.60;99.90